createdAt,value
2022-07-30T00:00:12.786Z,21.56
2022-07-30T00:02:51.545Z,21.52
2022-07-30T00:05:18.034Z,21.47
2022-07-30T00:07:44.471Z,21.42
2022-07-30T00:10:10.988Z,21.38
2022-07-30T00:12:37.440Z,21.35
2022-07-30T00:15:04.257Z,21.30
2022-07-30T00:17:30.746Z,21.25
2022-07-30T00:19:58.448Z,21.20
2022-07-30T00:22:25.764Z,21.13
2022-07-30T00:24:52.262Z,21.07
2022-07-30T00:27:19.293Z,20.97
2022-07-30T00:29:45.848Z,20.91
2022-07-30T00:32:12.286Z,20.83
2022-07-30T00:34:38.833Z,20.78
2022-07-30T00:37:06.055Z,20.73
2022-07-30T00:39:32.585Z,20.67
2022-07-30T00:42:01.051Z,20.61
2022-07-30T00:44:28.854Z,20.57
2022-07-30T00:46:56.365Z,20.51
2022-07-30T00:49:23.188Z,20.46
2022-07-30T00:51:50.129Z,20.41
2022-07-30T00:54:16.668Z,20.35
2022-07-30T00:56:43.771Z,20.30
2022-07-30T00:59:10.412Z,20.25
2022-07-30T01:01:37.110Z,20.18
2022-07-30T01:04:03.769Z,20.13
2022-07-30T01:06:30.411Z,20.07
2022-07-30T01:08:57.266Z,20.01
2022-07-30T01:11:31.789Z,19.97
2022-07-30T01:13:58.722Z,19.92
2022-07-30T01:16:25.590Z,19.85
2022-07-30T01:19:12.429Z,19.81
2022-07-30T01:21:43.912Z,19.77
2022-07-30T01:24:30.565Z,19.72
2022-07-30T01:26:58.089Z,19.67
2022-07-30T01:29:27.318Z,19.63
2022-07-30T01:31:59.942Z,19.59
2022-07-30T01:34:29.903Z,19.55
2022-07-30T01:36:59.497Z,19.51
2022-07-30T01:39:26.961Z,19.46
2022-07-30T01:41:55.627Z,19.43
2022-07-30T01:44:25.807Z,19.41
2022-07-30T01:46:54.475Z,19.37
2022-07-30T01:49:24.058Z,19.31
2022-07-30T01:51:51.969Z,19.28
2022-07-30T01:54:21.802Z,19.25
2022-07-30T01:56:51.251Z,19.21
2022-07-30T01:59:20.772Z,19.17
2022-07-30T02:01:48.022Z,19.13
2022-07-30T02:04:14.979Z,19.07
2022-07-30T02:06:47.431Z,19.05
2022-07-30T02:09:18.732Z,19.02
2022-07-30T02:12:05.724Z,18.98
2022-07-30T02:14:52.431Z,18.97
2022-07-30T02:17:30.208Z,18.94
2022-07-30T02:20:01.286Z,18.89
2022-07-30T02:22:33.299Z,18.84
2022-07-30T02:25:01.590Z,18.81
2022-07-30T02:27:32.114Z,18.77
2022-07-30T02:30:01.448Z,18.73
2022-07-30T02:32:33.095Z,18.69
2022-07-30T02:35:05.266Z,18.64
2022-07-30T02:37:41.063Z,18.62
2022-07-30T02:40:15.621Z,18.58
2022-07-30T02:42:45.146Z,18.56
2022-07-30T02:45:13.069Z,18.51
2022-07-30T02:47:42.898Z,18.48
2022-07-30T02:50:10.981Z,18.46
2022-07-30T02:52:39.085Z,18.41
2022-07-30T02:55:07.995Z,18.39
2022-07-30T02:57:35.966Z,18.36
2022-07-30T03:00:10.969Z,18.33
2022-07-30T03:02:39.389Z,18.28
2022-07-30T03:05:07.881Z,18.24
2022-07-30T03:07:35.854Z,18.20
2022-07-30T03:10:03.480Z,18.14
2022-07-30T03:12:32.940Z,18.11
2022-07-30T03:14:59.475Z,18.05
2022-07-30T03:17:28.093Z,17.99
2022-07-30T03:19:55.894Z,17.95
2022-07-30T03:22:29.974Z,17.93
2022-07-30T03:24:59.248Z,17.89
2022-07-30T03:27:26.328Z,17.86
2022-07-30T03:29:55.071Z,17.84
2022-07-30T03:32:26.256Z,17.81
2022-07-30T03:34:54.180Z,17.78
2022-07-30T03:37:21.442Z,17.75
2022-07-30T03:39:48.538Z,17.72
2022-07-30T03:42:15.942Z,17.69
2022-07-30T03:44:45.733Z,17.66
2022-07-30T03:47:13.821Z,17.62
2022-07-30T03:49:40.663Z,17.59
2022-07-30T03:52:07.590Z,17.57
2022-07-30T03:54:35.211Z,17.53
2022-07-30T03:57:03.466Z,17.52
2022-07-30T03:59:30.670Z,17.50
2022-07-30T04:02:06.829Z,17.50
2022-07-30T04:04:34.023Z,17.47
2022-07-30T04:07:00.795Z,17.46
2022-07-30T04:09:27.552Z,17.45
2022-07-30T04:11:54.090Z,17.45
2022-07-30T04:14:20.514Z,17.43
2022-07-30T04:16:51.872Z,17.41
2022-07-30T04:19:23.201Z,17.40
2022-07-30T04:21:52.440Z,17.38
2022-07-30T04:24:20.251Z,17.37
2022-07-30T04:26:48.074Z,17.34
2022-07-30T04:29:18.220Z,17.34
2022-07-30T04:31:46.896Z,17.34
2022-07-30T04:34:15.186Z,17.33
2022-07-30T04:36:43.025Z,17.33
2022-07-30T04:39:10.140Z,17.31
2022-07-30T04:41:49.034Z,17.31
2022-07-30T04:44:17.864Z,17.30
2022-07-30T04:46:44.480Z,17.30
2022-07-30T04:49:12.753Z,17.30
2022-07-30T04:51:40.653Z,17.31
2022-07-30T04:54:15.548Z,17.34
2022-07-30T04:56:52.464Z,17.35
2022-07-30T04:59:23.655Z,17.41
2022-07-30T05:01:51.164Z,17.44
2022-07-30T05:04:19.366Z,17.47
2022-07-30T05:06:46.502Z,17.51
2022-07-30T05:09:16.143Z,17.57
2022-07-30T05:11:42.787Z,17.61
2022-07-30T05:14:09.253Z,17.65
2022-07-30T05:16:35.848Z,17.69
2022-07-30T05:19:02.309Z,17.75
2022-07-30T05:21:34.950Z,17.80
2022-07-30T05:24:01.402Z,17.85
2022-07-30T05:26:28.116Z,17.90
2022-07-30T05:28:56.605Z,17.97
2022-07-30T05:31:23.866Z,18.03
2022-07-30T05:33:52.346Z,18.10
2022-07-30T05:36:20.095Z,18.17
2022-07-30T05:38:47.173Z,18.22
2022-07-30T05:41:31.969Z,18.28
2022-07-30T05:43:59.675Z,18.35
2022-07-30T05:46:26.386Z,18.40
2022-07-30T05:48:53.071Z,18.46
2022-07-30T05:51:20.830Z,18.50
2022-07-30T05:53:47.611Z,18.57
2022-07-30T05:56:14.039Z,18.62
2022-07-30T05:58:40.632Z,18.68
2022-07-30T06:01:07.277Z,18.74
2022-07-30T06:03:34.842Z,18.81
2022-07-30T06:06:04.581Z,18.90
2022-07-30T06:08:31.716Z,18.95
2022-07-30T06:10:58.170Z,19.02
2022-07-30T06:13:24.958Z,19.07
2022-07-30T06:15:51.593Z,19.14
2022-07-30T06:18:18.102Z,19.20
2022-07-30T06:20:44.876Z,19.27
2022-07-30T06:23:11.439Z,19.33
2022-07-30T06:25:39.902Z,19.40
2022-07-30T06:28:27.424Z,19.47
2022-07-30T06:30:53.355Z,19.54
2022-07-30T06:33:19.908Z,19.61
2022-07-30T06:35:46.365Z,19.68
2022-07-30T06:38:12.827Z,19.76
2022-07-30T06:40:39.928Z,19.83
2022-07-30T06:43:06.363Z,19.91
2022-07-30T06:45:32.835Z,19.99
2022-07-30T06:47:59.834Z,20.08
2022-07-30T06:50:26.710Z,20.17
2022-07-30T06:52:53.418Z,20.27
2022-07-30T06:55:19.891Z,20.37
2022-07-30T06:57:46.363Z,20.47
2022-07-30T07:00:13.538Z,20.56
2022-07-30T07:02:39.979Z,20.66
2022-07-30T07:05:07.480Z,20.75
2022-07-30T07:07:42.289Z,20.85
2022-07-30T07:10:11.373Z,20.93
2022-07-30T07:12:37.927Z,21.02
2022-07-30T07:15:05.447Z,21.11
2022-07-30T07:17:32.048Z,21.19
2022-07-30T07:20:01.720Z,21.26
2022-07-30T07:22:28.700Z,21.35
2022-07-30T07:24:55.222Z,21.45
2022-07-30T07:27:21.756Z,21.54
2022-07-30T07:30:04.910Z,21.63
2022-07-30T07:32:32.654Z,21.73
2022-07-30T07:34:59.150Z,21.82
2022-07-30T07:37:25.609Z,21.90
2022-07-30T07:39:52.027Z,22.01
2022-07-30T07:42:18.498Z,22.10
2022-07-30T07:44:44.934Z,22.19
2022-07-30T07:47:11.363Z,22.28
2022-07-30T07:49:37.816Z,22.38
2022-07-30T07:52:04.526Z,22.46
2022-07-30T07:54:30.944Z,22.55
2022-07-30T07:56:57.482Z,22.63
2022-07-30T07:59:27.748Z,22.73
2022-07-30T08:02:06.414Z,22.84
2022-07-30T08:04:34.524Z,22.91
2022-07-30T08:07:01.247Z,22.98
2022-07-30T08:09:27.939Z,23.07
2022-07-30T08:12:10.958Z,23.15
2022-07-30T08:14:37.864Z,23.21
2022-07-30T08:17:04.511Z,23.29
2022-07-30T08:19:31.305Z,23.36
2022-07-30T08:21:59.734Z,23.45
2022-07-30T08:24:26.870Z,23.54
2022-07-30T08:26:53.728Z,23.64
2022-07-30T08:29:20.257Z,23.75
2022-07-30T08:31:46.695Z,23.85
2022-07-30T08:34:13.753Z,23.95
2022-07-30T08:36:40.821Z,24.04
2022-07-30T08:39:07.430Z,24.14
2022-07-30T08:41:36.204Z,24.23
2022-07-30T08:44:03.094Z,24.30
2022-07-30T08:46:32.155Z,24.40
2022-07-30T08:49:00.548Z,24.49
2022-07-30T08:51:37.706Z,24.60
2022-07-30T08:54:04.835Z,24.69
2022-07-30T08:56:32.636Z,24.76
2022-07-30T08:59:00.651Z,24.84
2022-07-30T09:01:27.383Z,24.90
2022-07-30T09:03:53.937Z,24.97
2022-07-30T09:06:20.455Z,25.03
2022-07-30T09:08:46.883Z,25.11
2022-07-30T09:11:14.027Z,25.18
2022-07-30T09:13:43.014Z,25.29
2022-07-30T09:16:20.203Z,25.39
2022-07-30T09:18:47.070Z,25.49
2022-07-30T09:21:16.906Z,25.58
2022-07-30T09:24:00.932Z,25.68
2022-07-30T09:26:28.235Z,25.75
2022-07-30T09:28:54.900Z,25.82
2022-07-30T09:31:22.415Z,25.89
2022-07-30T09:33:48.999Z,25.99
2022-07-30T09:36:17.798Z,26.05
2022-07-30T09:38:47.932Z,26.14
2022-07-30T09:41:37.562Z,26.18
2022-07-30T09:44:04.841Z,26.28
2022-07-30T09:46:47.443Z,26.38
2022-07-30T09:49:16.396Z,26.44
2022-07-30T09:51:55.787Z,26.49
2022-07-30T09:54:24.294Z,26.57
2022-07-30T09:57:26.207Z,26.64
2022-07-30T09:59:55.099Z,26.68
2022-07-30T10:02:29.248Z,26.73
2022-07-30T10:05:14.116Z,26.78
2022-07-30T10:07:49.586Z,26.83
2022-07-30T10:10:25.533Z,26.88
2022-07-30T10:12:58.394Z,26.93
2022-07-30T10:15:29.656Z,27.01
2022-07-30T10:17:56.498Z,27.07
2022-07-30T10:20:24.155Z,27.17
2022-07-30T10:22:52.059Z,27.27
2022-07-30T10:25:20.782Z,27.39
2022-07-30T10:27:50.592Z,27.51
2022-07-30T10:30:27.639Z,27.66
2022-07-30T10:32:56.569Z,27.79
2022-07-30T10:35:34.427Z,27.91
2022-07-30T10:38:09.955Z,27.98
2022-07-30T10:40:43.274Z,28.06
2022-07-30T10:43:31.689Z,28.11
2022-07-30T10:46:19.963Z,28.20
2022-07-30T10:48:50.015Z,28.31
2022-07-30T10:51:18.633Z,28.41
2022-07-30T10:53:52.202Z,28.50
2022-07-30T10:56:25.975Z,28.59
2022-07-30T10:59:10.162Z,28.69
2022-07-30T11:01:53.274Z,28.78
2022-07-30T11:04:25.536Z,28.92
2022-07-30T11:07:02.578Z,29.03
2022-07-30T11:09:42.713Z,29.19
2022-07-30T11:12:16.311Z,29.27
2022-07-30T11:14:46.125Z,29.36
2022-07-30T11:17:17.964Z,29.45
2022-07-30T11:20:02.660Z,29.58
2022-07-30T11:22:40.534Z,29.65
2022-07-30T11:25:50.456Z,29.73
2022-07-30T11:28:49.244Z,29.82
2022-07-30T11:31:56.639Z,29.82
2022-07-30T11:34:25.925Z,29.80
2022-07-30T11:37:19.130Z,29.80
2022-07-30T11:39:54.976Z,29.82
2022-07-30T11:42:24.350Z,29.84
2022-07-30T11:44:51.272Z,29.84
2022-07-30T11:47:18.519Z,29.87
2022-07-30T11:49:48.087Z,29.91
2022-07-30T11:52:23.056Z,29.96
2022-07-30T11:54:54.086Z,30.01
2022-07-30T11:57:20.746Z,30.05
2022-07-30T11:59:55.625Z,30.11
2022-07-30T12:02:28.471Z,30.13
2022-07-30T12:04:55.062Z,30.12
2022-07-30T12:07:24.683Z,30.12
2022-07-30T12:09:51.135Z,30.06
2022-07-30T12:12:24.541Z,30.00
2022-07-30T12:14:51.453Z,29.91
2022-07-30T12:17:19.322Z,29.82
2022-07-30T12:19:48.865Z,29.73
2022-07-30T12:22:15.673Z,29.66
2022-07-30T12:24:42.167Z,29.61
2022-07-30T12:27:08.866Z,29.62
2022-07-30T12:29:35.819Z,29.65
2022-07-30T12:32:02.523Z,29.74
2022-07-30T12:34:29.193Z,29.81
2022-07-30T12:37:06.386Z,29.89
2022-07-30T12:39:32.821Z,29.97
2022-07-30T12:41:59.287Z,30.04
2022-07-30T12:44:35.104Z,30.13
2022-07-30T12:47:03.004Z,30.21
2022-07-30T12:49:36.593Z,30.28
2022-07-30T12:52:28.810Z,30.37
2022-07-30T12:55:01.946Z,30.46
2022-07-30T12:57:48.922Z,30.53
2022-07-30T13:00:16.345Z,30.62
2022-07-30T13:02:43.214Z,30.71
2022-07-30T13:05:11.261Z,30.82
2022-07-30T13:07:58.227Z,30.95
2022-07-30T13:10:30.456Z,31.04
2022-07-30T13:12:58.403Z,31.18
2022-07-30T13:15:24.981Z,31.31
2022-07-30T13:17:51.558Z,31.44
2022-07-30T13:20:18.165Z,31.56
2022-07-30T13:22:44.799Z,31.65
2022-07-30T13:25:11.695Z,31.71
2022-07-30T13:27:38.750Z,31.74
2022-07-30T13:30:06.099Z,31.73
2022-07-30T13:32:33.266Z,31.73
2022-07-30T13:35:01.596Z,31.73
2022-07-30T13:37:38.073Z,31.72
2022-07-30T13:40:06.421Z,31.70
2022-07-30T13:42:33.004Z,31.68
2022-07-30T13:44:59.530Z,31.63
2022-07-30T13:47:25.964Z,31.57
2022-07-30T13:49:52.430Z,31.52
2022-07-30T13:52:18.849Z,31.44
2022-07-30T13:54:45.348Z,31.40
2022-07-30T13:57:11.987Z,31.34
2022-07-30T13:59:38.455Z,31.32
2022-07-30T14:02:05.074Z,31.32
2022-07-30T14:04:31.753Z,31.31
2022-07-30T14:06:58.292Z,31.30
2022-07-30T14:09:24.907Z,31.26
2022-07-30T14:11:51.979Z,31.25
2022-07-30T14:14:18.983Z,31.26
2022-07-30T14:16:46.931Z,31.30
2022-07-30T14:19:23.911Z,31.36
2022-07-30T14:21:52.782Z,31.40
2022-07-30T14:24:19.979Z,31.42
2022-07-30T14:26:46.548Z,31.41
2022-07-30T14:29:12.996Z,31.38
2022-07-30T14:31:40.636Z,31.32
2022-07-30T14:34:07.066Z,31.25
2022-07-30T14:36:33.697Z,31.19
2022-07-30T14:39:01.947Z,31.12
2022-07-30T14:41:28.497Z,31.05
2022-07-30T14:43:55.035Z,30.98
2022-07-30T14:46:21.591Z,30.92
2022-07-30T14:48:48.191Z,30.85
2022-07-30T14:51:21.766Z,30.80
2022-07-30T14:53:52.091Z,30.76
2022-07-30T14:56:19.379Z,30.78
2022-07-30T14:58:46.211Z,30.80
2022-07-30T15:01:16.634Z,30.83
2022-07-30T15:03:44.811Z,30.87
2022-07-30T15:06:12.725Z,30.89
2022-07-30T15:08:39.307Z,30.88
2022-07-30T15:11:06.162Z,30.86
2022-07-30T15:13:34.873Z,30.82
2022-07-30T15:16:02.956Z,30.78
2022-07-30T15:18:29.520Z,30.76
2022-07-30T15:20:56.435Z,30.74
2022-07-30T15:23:22.899Z,30.73
2022-07-30T15:25:49.474Z,30.72
2022-07-30T15:28:16.161Z,30.71
2022-07-30T15:30:42.710Z,30.71
2022-07-30T15:33:09.423Z,30.69
2022-07-30T15:35:36.513Z,30.67
2022-07-30T15:38:03.393Z,30.65
2022-07-30T15:40:30.148Z,30.62
2022-07-30T15:42:56.620Z,30.59
2022-07-30T15:45:24.703Z,30.56
2022-07-30T15:47:51.748Z,30.51
2022-07-30T15:50:18.234Z,30.47
2022-07-30T15:52:45.097Z,30.41
2022-07-30T15:55:12.416Z,30.38
2022-07-30T15:57:40.507Z,30.36
2022-07-30T16:00:08.743Z,30.38
2022-07-30T16:02:36.137Z,30.40
2022-07-30T16:05:03.106Z,30.47
2022-07-30T16:07:30.238Z,30.59
2022-07-30T16:09:56.769Z,30.72
2022-07-30T16:12:23.219Z,30.88
2022-07-30T16:14:49.672Z,31.06
2022-07-30T16:17:16.513Z,31.26
2022-07-30T16:19:44.876Z,31.44
2022-07-30T16:22:14.967Z,31.60
2022-07-30T16:24:48.768Z,31.69
2022-07-30T16:27:16.695Z,31.77
2022-07-30T16:29:43.216Z,31.82
2022-07-30T16:32:09.674Z,31.88
2022-07-30T16:34:36.106Z,31.91
2022-07-30T16:37:04.214Z,31.93
2022-07-30T16:39:30.906Z,31.95
2022-07-30T16:41:57.455Z,31.95
2022-07-30T16:44:23.912Z,31.95
2022-07-30T16:46:50.379Z,31.95
2022-07-30T16:49:16.899Z,31.96
2022-07-30T16:51:43.983Z,31.95
2022-07-30T16:54:10.506Z,31.92
2022-07-30T16:56:36.941Z,31.91
2022-07-30T16:59:03.366Z,31.94
2022-07-30T17:01:31.125Z,31.99
2022-07-30T17:03:58.269Z,31.98
2022-07-30T17:06:24.808Z,31.93
2022-07-30T17:08:51.325Z,31.87
2022-07-30T17:11:45.952Z,31.79
2022-07-30T17:14:04.638Z,31.73
2022-07-30T17:16:31.042Z,31.65
2022-07-30T17:18:57.518Z,31.55
2022-07-30T17:21:23.977Z,31.38
2022-07-30T17:23:50.471Z,31.21
2022-07-30T17:26:17.082Z,31.02
2022-07-30T17:28:43.573Z,30.86
2022-07-30T17:31:10.041Z,30.68
2022-07-30T17:33:36.567Z,30.50
2022-07-30T17:36:03.387Z,30.31
2022-07-30T17:38:29.891Z,30.13
2022-07-30T17:40:56.385Z,29.98
2022-07-30T17:43:22.834Z,29.83
2022-07-30T17:45:49.309Z,29.69
2022-07-30T17:48:15.818Z,29.56
2022-07-30T17:50:42.329Z,29.44
2022-07-30T17:53:08.776Z,29.35
2022-07-30T17:55:35.468Z,29.24
2022-07-30T17:58:03.223Z,29.17
2022-07-30T18:00:29.765Z,29.10
2022-07-30T18:02:56.334Z,29.05
2022-07-30T18:05:22.995Z,28.97
2022-07-30T18:07:49.674Z,28.91
2022-07-30T18:10:16.183Z,28.88
2022-07-30T18:12:49.108Z,28.91
2022-07-30T18:15:17.546Z,28.98
2022-07-30T18:17:44.046Z,29.08
2022-07-30T18:20:11.096Z,29.24
2022-07-30T18:22:37.548Z,29.43
2022-07-30T18:25:07.771Z,29.66
2022-07-30T18:27:34.511Z,29.85
2022-07-30T18:30:01.008Z,29.98
2022-07-30T18:32:27.437Z,30.03
2022-07-30T18:34:53.865Z,30.02
2022-07-30T18:37:20.353Z,29.96
2022-07-30T18:39:46.800Z,29.85
2022-07-30T18:42:14.315Z,29.72
2022-07-30T18:44:40.736Z,29.58
2022-07-30T18:47:07.145Z,29.41
2022-07-30T18:49:37.155Z,29.22
2022-07-30T18:52:05.839Z,29.02
2022-07-30T18:54:32.602Z,28.84
2022-07-30T18:56:59.067Z,28.66
2022-07-30T18:59:25.538Z,28.48
2022-07-30T19:01:52.248Z,28.32
2022-07-30T19:04:18.717Z,28.15
2022-07-30T19:06:45.385Z,28.01
2022-07-30T19:09:17.211Z,27.86
2022-07-30T19:11:45.290Z,27.73
2022-07-30T19:14:13.187Z,27.63
2022-07-30T19:16:40.588Z,27.49
2022-07-30T19:19:07.374Z,27.39
2022-07-30T19:21:33.802Z,27.29
2022-07-30T19:24:01.482Z,27.21
2022-07-30T19:26:28.833Z,27.13
2022-07-30T19:28:55.277Z,27.06
2022-07-30T19:31:21.746Z,27.00
2022-07-30T19:33:48.286Z,26.92
2022-07-30T19:36:16.394Z,26.86
2022-07-30T19:38:45.157Z,26.77
2022-07-30T19:41:11.871Z,26.66
2022-07-30T19:43:40.620Z,26.56
2022-07-30T19:46:07.125Z,26.43
2022-07-30T19:48:36.092Z,26.33
2022-07-30T19:51:04.312Z,26.20
2022-07-30T19:53:34.082Z,26.10
2022-07-30T19:56:03.119Z,26.02
2022-07-30T19:58:30.801Z,25.92
2022-07-30T20:00:57.435Z,25.82
2022-07-30T20:03:25.433Z,25.75
2022-07-30T20:05:57.434Z,25.69
2022-07-30T20:08:27.674Z,25.63
2022-07-30T20:10:57.667Z,25.61
2022-07-30T20:13:25.364Z,25.58
2022-07-30T20:16:12.252Z,25.56
2022-07-30T20:18:39.392Z,25.55
2022-07-30T20:21:06.216Z,25.55
2022-07-30T20:23:32.725Z,25.53
2022-07-30T20:25:59.167Z,25.52
2022-07-30T20:28:27.230Z,25.52
2022-07-30T20:30:53.683Z,25.51
2022-07-30T20:33:23.795Z,25.50
2022-07-30T20:36:02.714Z,25.47
2022-07-30T20:38:30.346Z,25.44
2022-07-30T20:40:57.227Z,25.41
2022-07-30T20:43:23.747Z,25.39
2022-07-30T20:45:54.079Z,25.38
2022-07-30T20:48:25.510Z,25.37
2022-07-30T20:50:52.553Z,25.35
2022-07-30T20:53:19.831Z,25.35
2022-07-30T20:55:47.328Z,25.34
2022-07-30T20:58:16.660Z,25.33
2022-07-30T21:00:49.657Z,25.31
2022-07-30T21:03:21.271Z,25.30
2022-07-30T21:05:48.169Z,25.28
2022-07-30T21:08:17.783Z,25.26
2022-07-30T21:10:44.874Z,25.23
2022-07-30T21:13:12.724Z,25.21
2022-07-30T21:15:45.469Z,25.18
2022-07-30T21:18:26.063Z,25.16
2022-07-30T21:20:53.049Z,25.11
2022-07-30T21:23:22.338Z,25.07
2022-07-30T21:26:01.589Z,25.03
2022-07-30T21:28:35.931Z,24.98
2022-07-30T21:31:07.095Z,24.93
2022-07-30T21:33:34.931Z,24.87
2022-07-30T21:36:01.379Z,24.84
2022-07-30T21:38:28.591Z,24.80
2022-07-30T21:40:56.862Z,24.77
2022-07-30T21:43:29.854Z,24.74
2022-07-30T21:45:57.051Z,24.71
2022-07-30T21:48:24.256Z,24.68
2022-07-30T21:50:50.694Z,24.65
2022-07-30T21:53:17.535Z,24.65
2022-07-30T21:55:56.749Z,24.65
2022-07-30T21:58:26.077Z,24.64
2022-07-30T22:00:54.954Z,24.63
2022-07-30T22:04:04.033Z,24.66
2022-07-30T22:06:12.630Z,24.68
2022-07-30T22:08:39.706Z,24.68
2022-07-30T22:11:09.017Z,24.68
2022-07-30T22:13:51.119Z,24.68
2022-07-30T22:16:18.245Z,24.67
2022-07-30T22:18:45.484Z,24.65
2022-07-30T22:21:11.992Z,24.63
2022-07-30T22:23:41.195Z,24.61
2022-07-30T22:26:23.818Z,24.58
2022-07-30T22:28:54.288Z,24.53
2022-07-30T22:31:20.978Z,24.49
2022-07-30T22:33:47.766Z,24.44
2022-07-30T22:36:17.450Z,24.39
2022-07-30T22:38:58.711Z,24.34
2022-07-30T22:41:25.847Z,24.28
2022-07-30T22:43:55.584Z,24.22
2022-07-30T22:46:31.009Z,24.19
2022-07-30T22:49:08.441Z,24.21
2022-07-30T22:52:04.883Z,24.18
2022-07-30T22:54:37.313Z,24.16
2022-07-30T22:57:04.239Z,24.13
2022-07-30T23:00:00.273Z,24.10
2022-07-30T23:02:17.951Z,24.07
2022-07-30T23:04:44.460Z,24.04
2022-07-30T23:07:14.000Z,24.02
2022-07-30T23:09:51.754Z,23.97
2022-07-30T23:12:20.204Z,23.96
2022-07-30T23:14:47.648Z,23.93
2022-07-30T23:17:14.459Z,23.88
2022-07-30T23:19:40.927Z,23.84
2022-07-30T23:22:07.319Z,23.82
2022-07-30T23:24:33.942Z,23.78
2022-07-30T23:27:00.832Z,23.74
2022-07-30T23:29:28.574Z,23.71
2022-07-30T23:31:55.594Z,23.67
2022-07-30T23:34:22.285Z,23.65
2022-07-30T23:36:48.933Z,23.63
2022-07-30T23:39:15.468Z,23.58
2022-07-30T23:41:42.044Z,23.55
2022-07-30T23:44:08.493Z,23.51
2022-07-30T23:46:37.100Z,23.48
2022-07-30T23:49:04.606Z,23.45
2022-07-30T23:51:33.309Z,23.43
2022-07-30T23:54:00.355Z,23.41
2022-07-30T23:56:26.909Z,23.38
2022-07-30T23:58:53.406Z,23.35
